^^
Meteo Knjazevac Station Historical Data
Daily Summary for September 24, 2021 Units:  Metric    English   Both
Daily Weekly Monthly Yearly Custom
  High: Low: Average:
Temperature: 23.4 °C 3.3 °C 13.2 °C
Dew Point: 10.9 °C 2 °C 7.3 °C
Humidity: 94% 43% 71%
Wind Speed: 20.9km/h 0km/h 5.1km/h
Wind Gust: 32.2km/h - -
Wind- - SW
Pressure: 1022.9 hPa 1017.2 hPa -
Precipitation: 0 mm    
Historical Graphs
 
 
Tabular Data for September 24, 2021
Time Temperature Dew Point Pressure Wind Wind Speed Wind Gust Humidity Rainfall Rate (Hourly) solar Conditions
00:10 4.8 °C 3.1 °C 1022.9 hPa West 3.2 km/h 4.8 km/h 89% 0 mm 0 W/m2
00:20 4.6 °C 2.8 °C 1022.9 hPa West 1.6 km/h 4.8 km/h 88% 0 mm 0 W/m2
00:30 4.4 °C 2.7 °C 1022.9 hPa WNW 3.2 km/h 4.8 km/h 89% 0 mm 0 W/m2
00:40 4.3 °C 2.6 °C 1022.9 hPa WNW 3.2 km/h 4.8 km/h 89% 0 mm 0 W/m2
00:50 4.1 °C 2.6 °C 1022.9 hPa West 3.2 km/h 6.4 km/h 90% 0 mm 0 W/m2
01:00 4 °C 2.5 °C 1022.6 hPa NW 1.6 km/h 6.4 km/h 90% 0 mm 0 W/m2
01:10 3.9 °C 2.4 °C 1022.6 hPa NW 1.6 km/h 4.8 km/h 90% 0 mm 0 W/m2
01:20 4 °C 2.7 °C 1022.2 hPa WNW 3.2 km/h 6.4 km/h 91% 0 mm 0 W/m2
01:30 4.2 °C 2.8 °C 1022.2 hPa NW 1.6 km/h 4.8 km/h 91% 0 mm 0 W/m2
01:40 4 °C 2.5 °C 1022.2 hPa NW 3.2 km/h 4.8 km/h 90% 0 mm 0 W/m2
01:50 3.9 °C 2.4 °C 1022.2 hPa NNW 1.6 km/h 3.2 km/h 90% 0 mm 0 W/m2
02:00 3.8 °C 2.3 °C 1022.2 hPa Calm   4.8 km/h 90% 0 mm 0 W/m2
02:10 3.6 °C 2.1 °C 1022.2 hPa NW 1.6 km/h 6.4 km/h 90% 0 mm 0 W/m2
02:20 3.5 °C 2 °C 1022.2 hPa WNW 1.6 km/h 3.2 km/h 90% 0 mm 0 W/m2
02:30 3.4 °C 2.1 °C 1021.9 hPa North 3.2 km/h 4.8 km/h 91% 0 mm 0 W/m2
02:40 3.4 °C 2.1 °C 1022.2 hPa Calm   4.8 km/h 91% 0 mm 0 W/m2
02:50 3.4 °C 2.1 °C 1021.9 hPa North 1.6 km/h 3.2 km/h 91% 0 mm 0 W/m2
03:00 3.3 °C 2.3 °C 1021.9 hPa North 3.2 km/h 4.8 km/h 93% 0 mm 0 W/m2
03:10 3.4 °C 2.4 °C 1021.9 hPa NW 1.6 km/h 4.8 km/h 93% 0 mm 0 W/m2
03:20 3.5 °C 2.6 °C 1021.9 hPa NNE 1.6 km/h 4.8 km/h 94% 0 mm 0 W/m2
03:30 3.7 °C 2.7 °C 1021.6 hPa ESE 1.6 km/h 8 km/h 93% 0 mm 0 W/m2
03:40 3.5 °C 2.5 °C 1021.6 hPa NNE 1.6 km/h 6.4 km/h 93% 0 mm 0 W/m2
03:50 3.7 °C 2.8 °C 1021.6 hPa North 1.6 km/h 3.2 km/h 94% 0 mm 0 W/m2
04:00 3.9 °C 3 °C 1021.6 hPa Calm   4.8 km/h 94% 0 mm 0 W/m2
04:10 4 °C 3.1 °C 1021.6 hPa WNW 1.6 km/h 4.8 km/h 94% 0 mm 0 W/m2
04:20 4 °C 3.1 °C 1021.2 hPa WNW 1.6 km/h 4.8 km/h 94% 0 mm 0 W/m2
04:30 4.2 °C 3.3 °C 1021.2 hPa NW 1.6 km/h 4.8 km/h 94% 0 mm 0 W/m2
04:40 4.4 °C 3.5 °C 1021.2 hPa Calm   3.2 km/h 94% 0 mm 0 W/m2
04:50 4.4 °C 3.4 °C 1021.2 hPa Calm   8 km/h 93% 0 mm 0 W/m2
05:00 4.4 °C 3.6 °C 1021.2 hPa ESE 1.6 km/h 3.2 km/h 94% 0 mm 0 W/m2
05:10 4.6 °C 3.7 °C 1020.9 hPa Calm   3.2 km/h 94% 0 mm 0 W/m2
05:20 4.5 °C 3.2 °C 1020.9 hPa Calm   3.2 km/h 91% 0 mm 0 W/m2
05:30 4.4 °C 3.4 °C 1020.9 hPa NNW 3.2 km/h 8 km/h 93% 0 mm 0 W/m2
05:40 4.3 °C 3.3 °C 1020.9 hPa NNW 1.6 km/h 4.8 km/h 93% 0 mm 0 W/m2
05:50 4.5 °C 3.6 °C 1020.9 hPa North 1.6 km/h 3.2 km/h 94% 0 mm 0 W/m2
06:00 4.8 °C 3.9 °C 1020.9 hPa NE 1.6 km/h 6.4 km/h 94% 0 mm 0 W/m2
06:10 4.7 °C 3.7 °C 1020.5 hPa NE 1.6 km/h 6.4 km/h 93% 0 mm 0 W/m2
06:20 4.6 °C 3.6 °C 1020.5 hPa ENE 1.6 km/h 3.2 km/h 93% 0 mm 2 W/m2
06:30 4.7 °C 3.7 °C 1020.5 hPa Calm   3.2 km/h 93% 0 mm 5 W/m2
06:40 4.6 °C 3.6 °C 1020.5 hPa NW 1.6 km/h 3.2 km/h 93% 0 mm 13 W/m2
06:50 4.9 °C 4 °C 1020.5 hPa NW 1.6 km/h 4.8 km/h 94% 0 mm 24 W/m2
07:00 5.1 °C 4.2 °C 1020.5 hPa Calm   3.2 km/h 94% 0 mm 37 W/m2
07:10 5.3 °C 4.4 °C 1020.2 hPa West 1.6 km/h 4.8 km/h 94% 0 mm 53 W/m2
07:20 5.6 °C 4.7 °C 1020.5 hPa Calm   4.8 km/h 94% 0 mm 62 W/m2
07:30 6 °C 5.1 °C 1020.5 hPa ESE 3.2 km/h 4.8 km/h 94% 0 mm 74 W/m2
07:40 6.3 °C 5.3 °C 1020.5 hPa Calm   4.8 km/h 93% 0 mm 91 W/m2
07:50 6.5 °C 5.4 °C 1020.5 hPa Calm   3.2 km/h 93% 0 mm 96 W/m2
08:00 6.8 °C 5.7 °C 1020.5 hPa Calm   3.2 km/h 93% 0 mm 131 W/m2
08:10 7.2 °C 5.8 °C 1020.5 hPa Calm   4.8 km/h 91% 0 mm 192 W/m2
08:20 7.7 °C 6.2 °C 1020.5 hPa SW 1.6 km/h 8 km/h 90% 0 mm 176 W/m2
08:30 8.3 °C 6.8 °C 1020.5 hPa Calm   6.4 km/h 90% 0 mm 216 W/m2
08:40 8.9 °C 7.4 °C 1020.2 hPa Calm   3.2 km/h 90% 0 mm 238 W/m2
08:50 9.7 °C 7.5 °C 1020.5 hPa ESE 1.6 km/h 4.8 km/h 86% 0 mm 260 W/m2
09:00 10.5 °C 7.9 °C 1020.5 hPa SSE 1.6 km/h 8 km/h 84% 0 mm 278 W/m2
09:10 11.1 °C 8.2 °C 1020.5 hPa South 1.6 km/h 4.8 km/h 82% 0 mm 289 W/m2
09:20 11.8 °C 8.3 °C 1020.5 hPa South 4.8 km/h 12.9 km/h 79% 0 mm 332 W/m2
09:50 13.4 °C 8.4 °C 1020.5 hPa SW 6.4 km/h 17.7 km/h 71.8% 0 mm 414 W/m2
10:00 14.4 °C 8.6 °C 1020.5 hPa SW 8 km/h 14.5 km/h 68% 0 mm 413 W/m2
10:10 14.9 °C 8.6 °C 1020.5 hPa SW 11.3 km/h 19.3 km/h 66% 0 mm 429 W/m2
10:20 15.3 °C 8.5 °C 1020.5 hPa SW 9.7 km/h 19.3 km/h 64% 0 mm 318 W/m2
10:30 15.6 °C 8.6 °C 1020.5 hPa SW 12.9 km/h 22.5 km/h 63% 0 mm 318 W/m2
10:40 16 °C 8.2 °C 1020.2 hPa SW 14.5 km/h 24.1 km/h 60% 0 mm 436 W/m2
10:50 16.3 °C 8 °C 1020.2 hPa SW 16.1 km/h 27.4 km/h 58% 0 mm 488 W/m2
11:00 16.7 °C 8.4 °C 1020.2 hPa SW 16.1 km/h 27.4 km/h 58% 0 mm 593 W/m2
11:10 17.2 °C 8.6 °C 1020.2 hPa SW 16.1 km/h 24.1 km/h 57% 0 mm 613 W/m2
11:20 17.6 °C 9 °C 1020.2 hPa SW 14.5 km/h 24.1 km/h 57% 0 mm 542 W/m2
11:30 17.8 °C 8.7 °C 1020.2 hPa SW 14.5 km/h 24.1 km/h 55% 0 mm 579 W/m2
11:40 18.2 °C 9.1 °C 1020.2 hPa SW 14.5 km/h 22.5 km/h 55% 0 mm 704 W/m2
11:50 18.9 °C 9.1 °C 1019.9 hPa SW 14.5 km/h 24.1 km/h 53% 0 mm 709 W/m2
12:00 19.5 °C 8.8 °C 1019.9 hPa SSW 16.1 km/h 27.4 km/h 50% 0 mm 713 W/m2
12:10 19.9 °C 9.2 °C 1019.9 hPa SSW 11.3 km/h 27.4 km/h 50% 0 mm 716 W/m2
12:20 20.4 °C 9.3 °C 1019.5 hPa SSW 9.7 km/h 22.5 km/h 49% 0 mm 717 W/m2
12:30 20.8 °C 9.4 °C 1019.5 hPa SW 14.5 km/h 27.4 km/h 48% 0 mm 716 W/m2
12:40 21.1 °C 9.7 °C 1019.2 hPa SW 14.5 km/h 22.5 km/h 48% 0 mm 714 W/m2
12:50 21.4 °C 9.6 °C 1019.2 hPa SW 12.9 km/h 24.1 km/h 47% 0 mm 710 W/m2
13:00 21.6 °C 9.8 °C 1018.8 hPa SW 12.9 km/h 27.4 km/h 47% 0 mm 704 W/m2
13:10 21.7 °C 9.3 °C 1018.8 hPa SW 12.9 km/h 25.7 km/h 45% 0 mm 697 W/m2
13:20 21.9 °C 9.4 °C 1018.8 hPa SW 14.5 km/h 25.7 km/h 45% 0 mm 688 W/m2
13:30 22.3 °C 9.8 °C 1018.5 hPa SW 11.3 km/h 22.5 km/h 45% 0 mm 678 W/m2
13:40 22.4 °C 9.6 °C 1018.5 hPa SSW 12.9 km/h 30.6 km/h 44% 0 mm 666 W/m2
13:50 22.6 °C 9.7 °C 1018.2 hPa SW 9.7 km/h 30.6 km/h 44% 0 mm 653 W/m2
14:00 22.9 °C 10.1 °C 1017.8 hPa SSW 12.9 km/h 24.1 km/h 44% 0 mm 638 W/m2
14:10 23 °C 9.7 °C 1017.8 hPa SSW 12.9 km/h 27.4 km/h 43% 0 mm 622 W/m2
14:20 23.1 °C 10.2 °C 1017.8 hPa SW 19.3 km/h 25.7 km/h 44% 0 mm 604 W/m2
14:30 23.3 °C 10.3 °C 1017.8 hPa WSW 12.9 km/h 25.7 km/h 44% 0 mm 585 W/m2
14:40 23.4 °C 10.1 °C 1017.8 hPa SW 20.9 km/h 27.4 km/h 43% 0 mm 565 W/m2
14:50 23.3 °C 10 °C 1017.5 hPa SW 16.1 km/h 27.4 km/h 43% 0 mm 495 W/m2
15:00 23.3 °C 10.3 °C 1017.5 hPa SW 14.5 km/h 24.1 km/h 44% 0 mm 516 W/m2
15:10 22.9 °C 10.3 °C 1017.5 hPa SW 16.1 km/h 32.2 km/h 45% 0 mm 463 W/m2
15:20 22.8 °C 10.2 °C 1017.5 hPa SW 16.1 km/h 32.2 km/h 45% 0 mm 472 W/m2
15:30 22.9 °C 10.3 °C 1017.5 hPa SW 14.5 km/h 27.4 km/h 45% 0 mm 446 W/m2
15:40 23.1 °C 10.4 °C 1017.5 hPa SW 11.3 km/h 29 km/h 45% 0 mm 419 W/m2
15:50 23.1 °C 10.2 °C 1017.5 hPa SW 14.5 km/h 29 km/h 44% 0 mm 392 W/m2
16:00 23.1 °C 10.5 °C 1017.5 hPa SW 12.9 km/h 24.1 km/h 45% 0 mm 364 W/m2
16:10 23.3 °C 10.7 °C 1017.2 hPa SW 12.9 km/h 22.5 km/h 45% 0 mm 335 W/m2
16:20 23.4 °C 10.4 °C 1017.5 hPa SW 11.3 km/h 20.9 km/h 44% 0 mm 307 W/m2
16:30 23.4 °C 10.8 °C 1017.5 hPa SW 9.7 km/h 19.3 km/h 45% 0 mm 277 W/m2
16:40 23.4 °C 10.8 °C 1017.2 hPa SW 9.7 km/h 16.1 km/h 45% 0 mm 248 W/m2
16:50 23.2 °C 10.2 °C 1017.5 hPa SW 9.7 km/h 16.1 km/h 44% 0 mm 87 W/m2
17:00 22.8 °C 10.3 °C 1017.2 hPa SW 8 km/h 12.9 km/h 45% 0 mm 94 W/m2
17:10 22.6 °C 10.3 °C 1017.2 hPa SW 9.7 km/h 17.7 km/h 46% 0 mm 96 W/m2
17:20 22.4 °C 10.6 °C 1017.5 hPa SW 4.8 km/h 19.3 km/h 47% 0 mm 108 W/m2
17:30 22.3 °C 10.8 °C 1017.5 hPa SSW 3.2 km/h 9.7 km/h 48% 0 mm 106 W/m2
17:40 22.3 °C 10.8 °C 1017.5 hPa South 3.2 km/h 9.7 km/h 48% 0 mm 80 W/m2
17:50 22.2 °C 10.6 °C 1017.5 hPa South 1.6 km/h 8 km/h 48% 0 mm 50 W/m2
18:00 21.9 °C 10.4 °C 1017.5 hPa SSE 3.2 km/h 8 km/h 48% 0 mm 34 W/m2
18:10 21.7 °C 10.5 °C 1017.5 hPa SSE 3.2 km/h 9.7 km/h 49% 0 mm 16 W/m2
18:20 21.4 °C 10.8 °C 1017.8 hPa SSE 1.6 km/h 9.7 km/h 51% 0 mm 8 W/m2
18:30 20.9 °C 10.9 °C 1017.8 hPa SSW 1.6 km/h 4.8 km/h 53% 0 mm 0 W/m2
18:40 20.4 °C 10.8 °C 1017.8 hPa SW 1.6 km/h 6.4 km/h 54% 0 mm 0 W/m2
18:50 20 °C 10.4 °C 1017.8 hPa SSW 3.2 km/h 6.4 km/h 54% 0 mm 0 W/m2
19:00 19.6 °C 10.3 °C 1017.8 hPa SW 1.6 km/h 4.8 km/h 55% 0 mm 0 W/m2
19:10 19.2 °C 10.4 °C 1017.8 hPa WNW 3.2 km/h 8 km/h 57% 0 mm 0 W/m2
19:20 18.8 °C 10.4 °C 1017.8 hPa West 1.6 km/h 8 km/h 58% 0 mm 0 W/m2
19:30 18.4 °C 10.1 °C 1018.2 hPa SW 1.6 km/h 3.2 km/h 58% 0 mm 0 W/m2
19:40 17.9 °C 10.1 °C 1018.2 hPa ESE 3.2 km/h 8 km/h 60% 0 mm 0 W/m2
19:50 17.4 °C 10.1 °C 1018.5 hPa Calm   8 km/h 62% 0 mm 0 W/m2
20:00 17 °C 9.9 °C 1018.5 hPa NNE 1.6 km/h 3.2 km/h 63% 0 mm 0 W/m2
20:10 16.6 °C 9.8 °C 1018.5 hPa NNE 3.2 km/h 4.8 km/h 64% 0 mm 0 W/m2
20:20 16.2 °C 9.8 °C 1018.5 hPa NE 1.6 km/h 8 km/h 66% 0 mm 0 W/m2
20:30 16.1 °C 9.9 °C 1018.8 hPa NE 1.6 km/h 9.7 km/h 67% 0 mm 0 W/m2
20:40 15.8 °C 9.9 °C 1018.8 hPa NE 3.2 km/h 9.7 km/h 68% 0 mm 0 W/m2
20:50 15.4 °C 9.8 °C 1018.8 hPa Calm   4.8 km/h 69% 0 mm 0 W/m2
21:00 15.1 °C 9.4 °C 1019.2 hPa Calm   3.2 km/h 69% 0 mm 0 W/m2
21:10 14.7 °C 9.3 °C 1019.2 hPa Calm   1.6 km/h 70% 0 mm 0 W/m2
21:20 14.2 °C 9.2 °C 1019.2 hPa Calm   3.2 km/h 72% 0 mm 0 W/m2
21:30 13.8 °C 9.1 °C 1019.2 hPa Calm   3.2 km/h 73% 0 mm 0 W/m2
21:40 13.5 °C 8.9 °C 1019.5 hPa North 1.6 km/h 4.8 km/h 74% 0 mm 0 W/m2
21:50 13.1 °C 8.6 °C 1019.5 hPa Calm   3.2 km/h 74% 0 mm 0 W/m2
22:00 12.7 °C 8.4 °C 1019.5 hPa NW 1.6 km/h 4.8 km/h 75% 0 mm 0 W/m2
22:10 12.6 °C 8.2 °C 1019.5 hPa Calm   3.2 km/h 75% 0 mm 0 W/m2
22:20 12.3 °C 8.4 °C 1019.5 hPa Calm   1.6 km/h 77% 0 mm 0 W/m2
22:30 12.1 °C 8.4 °C 1019.9 hPa Calm   3.2 km/h 78% 0 mm 0 W/m2
22:40 11.7 °C 8 °C 1019.9 hPa Calm   3.2 km/h 78% 0 mm 0 W/m2
22:50 11.5 °C 8 °C 1019.9 hPa NW 3.2 km/h 4.8 km/h 79% 0 mm 0 W/m2
23:00 11.4 °C 7.9 °C 1019.9 hPa Calm   3.2 km/h 79% 0 mm 0 W/m2
23:10 11.4 °C 7.9 °C 1019.9 hPa NW 1.6 km/h 3.2 km/h 79% 0 mm 0 W/m2
23:20 11.3 °C 8 °C 1019.9 hPa Calm   3.2 km/h 80% 0 mm 0 W/m2
23:30 11.3 °C 8 °C 1020.2 hPa NW 1.6 km/h 3.2 km/h 80% 0 mm 0 W/m2
23:40 11.2 °C 8.1 °C 1020.2 hPa NW 1.6 km/h 3.2 km/h 81% 0 mm 0 W/m2
23:50 11.2 °C 8.1 °C 1020.2 hPa Calm   3.2 km/h 81% 0 mm 0 W/m2
Knjazevac, Serbia
Compliments of Weather Underground - 2 mb